createdAt,value
2019-01-26T00:00:53.894Z,95.57
2019-01-26T00:03:22.310Z,106.92
2019-01-26T00:05:50.577Z,106.00
2019-01-26T00:10:52.801Z,133.73
2019-01-26T00:13:21.292Z,124.43
2019-01-26T00:15:49.558Z,131.07
2019-01-26T00:18:19.560Z,142.10
2019-01-26T00:20:47.839Z,120.33
2019-01-26T00:23:16.139Z,146.43
2019-01-26T00:25:44.397Z,118.93
2019-01-26T00:28:12.706Z,152.20
2019-01-26T00:30:41.474Z,158.40
2019-01-26T00:33:10.558Z,156.00
2019-01-26T00:35:39.820Z,148.17
2019-01-26T00:38:08.339Z,143.63
2019-01-26T00:40:36.688Z,143.43
2019-01-26T00:43:06.657Z,127.87
2019-01-26T00:45:34.931Z,140.53
2019-01-26T00:48:03.573Z,164.13
2019-01-26T00:50:31.833Z,157.70
2019-01-26T00:53:01.030Z,158.43
2019-01-26T00:55:30.921Z,168.13
2019-01-26T00:57:59.583Z,186.40
2019-01-26T01:00:27.885Z,168.00
2019-01-26T01:02:57.795Z,175.80
2019-01-26T01:05:26.130Z,164.57
2019-01-26T01:07:54.456Z,167.33
2019-01-26T01:10:30.195Z,165.92
2019-01-26T01:12:58.471Z,148.90
2019-01-26T01:15:26.780Z,166.07
2019-01-26T01:17:55.087Z,134.17
2019-01-26T01:20:24.567Z,173.90
2019-01-26T01:22:52.830Z,144.63
2019-01-26T01:25:22.022Z,145.93
2019-01-26T01:27:50.286Z,147.32
2019-01-26T01:30:24.779Z,134.90
2019-01-26T01:32:52.952Z,162.23
2019-01-26T01:35:21.236Z,131.00
2019-01-26T01:37:49.570Z,156.20
2019-01-26T01:40:18.471Z,147.60
2019-01-26T01:42:46.770Z,147.60
2019-01-26T01:45:17.913Z,140.77
2019-01-26T01:47:46.274Z,148.70
2019-01-26T01:50:16.001Z,165.00
2019-01-26T01:52:44.260Z,174.70
2019-01-26T01:55:12.895Z,195.27
2019-01-26T01:57:41.190Z,217.00
2019-01-26T02:00:18.029Z,188.75
2019-01-26T02:02:46.320Z,218.37
2019-01-26T02:05:14.611Z,215.50
2019-01-26T02:07:42.872Z,187.73
2019-01-26T02:10:14.003Z,187.40
2019-01-26T02:12:42.324Z,204.93
2019-01-26T02:15:11.975Z,215.87
2019-01-26T02:17:40.517Z,212.00
2019-01-26T02:20:14.721Z,182.50
2019-01-26T02:22:45.125Z,192.10
2019-01-26T02:25:13.411Z,230.47
2019-01-26T02:27:41.699Z,246.90
2019-01-26T02:30:12.946Z,208.90
2019-01-26T02:32:41.209Z,220.20
2019-01-26T02:35:12.765Z,210.27
2019-01-26T02:37:41.025Z,185.63
2019-01-26T02:40:11.551Z,195.27
2019-01-26T02:42:39.870Z,178.77
2019-01-26T02:45:09.677Z,196.10
2019-01-26T02:47:37.987Z,208.37
2019-01-26T02:50:09.492Z,197.90
2019-01-26T02:52:37.991Z,199.70
2019-01-26T02:55:06.380Z,192.97
2019-01-26T02:57:34.777Z,191.13
2019-01-26T03:00:05.027Z,208.78
2019-01-26T03:02:33.353Z,185.00
2019-01-26T03:05:01.660Z,173.97
2019-01-26T03:07:29.924Z,185.73
2019-01-26T03:10:01.473Z,197.60
2019-01-26T03:12:29.769Z,193.93
2019-01-26T03:14:58.023Z,178.53
2019-01-26T03:17:29.641Z,193.97
2019-01-26T03:19:57.900Z,187.03
2019-01-26T03:22:26.222Z,199.40
2019-01-26T03:24:55.745Z,161.50
2019-01-26T03:27:24.030Z,194.30
2019-01-26T03:29:52.316Z,187.03
2019-01-26T03:32:20.584Z,157.06
2019-01-26T03:34:48.837Z,167.17
2019-01-26T03:37:18.724Z,171.23
2019-01-26T03:39:47.012Z,153.03
2019-01-26T03:42:15.326Z,137.27
2019-01-26T03:44:43.659Z,154.68
2019-01-26T03:47:13.764Z,167.87
2019-01-26T03:49:41.990Z,167.40
2019-01-26T03:52:10.254Z,164.70
2019-01-26T03:54:38.549Z,169.97
2019-01-26T03:57:06.810Z,161.20
2019-01-26T03:59:35.091Z,159.20
2019-01-26T04:02:03.393Z,148.85
2019-01-26T04:04:31.756Z,151.87
2019-01-26T04:07:01.849Z,124.67
2019-01-26T04:09:30.165Z,153.10
2019-01-26T04:11:58.439Z,160.87
2019-01-26T04:14:26.707Z,127.10
2019-01-26T04:16:55.217Z,139.73
2019-01-26T04:19:23.469Z,156.85
2019-01-26T04:21:51.729Z,146.70
2019-01-26T04:24:20.050Z,152.53
2019-01-26T04:26:48.366Z,169.97
2019-01-26T04:29:16.612Z,178.57
2019-01-26T04:31:44.952Z,175.83
2019-01-26T04:34:16.813Z,161.67
2019-01-26T04:36:44.889Z,177.00
2019-01-26T04:39:13.150Z,183.60
2019-01-26T04:41:43.420Z,168.77
2019-01-26T04:44:11.416Z,171.63
2019-01-26T04:46:39.688Z,168.43
2019-01-26T04:49:08.164Z,178.53
2019-01-26T04:51:36.255Z,163.67
2019-01-26T04:54:04.677Z,175.27
2019-01-26T04:56:32.937Z,160.13
2019-01-26T04:59:01.230Z,169.67
2019-01-26T05:01:31.161Z,156.70
2019-01-26T05:03:59.452Z,176.37
2019-01-26T05:06:27.735Z,175.50
2019-01-26T05:08:57.737Z,183.85
2019-01-26T05:11:25.997Z,178.00
2019-01-26T05:13:54.644Z,174.77
2019-01-26T05:16:22.928Z,187.63
2019-01-26T05:18:51.212Z,185.07
2019-01-26T05:21:19.558Z,177.70
2019-01-26T05:23:51.902Z,167.10
2019-01-26T05:26:20.160Z,186.80
2019-01-26T05:28:48.506Z,157.67
2019-01-26T05:31:16.877Z,176.87
2019-01-26T05:33:45.232Z,176.70
2019-01-26T05:36:13.495Z,161.63
2019-01-26T05:38:41.810Z,174.73
2019-01-26T05:41:10.060Z,141.73
2019-01-26T05:43:38.331Z,170.93
2019-01-26T05:46:06.349Z,182.85
2019-01-26T05:48:34.635Z,164.40
2019-01-26T05:51:02.950Z,163.60
2019-01-26T05:53:31.215Z,144.55
2019-01-26T05:55:59.475Z,177.23
2019-01-26T05:58:27.744Z,166.27
2019-01-26T06:00:56.034Z,155.73
2019-01-26T06:03:24.329Z,157.27
2019-01-26T06:05:54.218Z,167.43
2019-01-26T06:08:29.039Z,167.27
2019-01-26T06:11:00.265Z,153.87
2019-01-26T06:13:30.838Z,140.03
2019-01-26T06:15:58.539Z,120.60
2019-01-26T06:18:26.837Z,137.03
2019-01-26T06:20:55.110Z,120.42
2019-01-26T06:23:23.476Z,126.97
2019-01-26T06:25:55.072Z,104.67
2019-01-26T06:28:23.375Z,125.58
2019-01-26T06:30:51.645Z,104.50
2019-01-26T06:33:19.989Z,108.63
2019-01-26T06:35:51.367Z,106.03
2019-01-26T06:38:19.684Z,119.45
2019-01-26T06:40:47.718Z,124.13
2019-01-26T06:43:17.192Z,97.17
2019-01-26T06:45:45.525Z,126.90
2019-01-26T06:48:13.779Z,129.35
2019-01-26T06:50:42.074Z,109.32
2019-01-26T06:53:10.357Z,136.17
2019-01-26T06:55:38.747Z,116.20
2019-01-26T06:58:07.029Z,129.30
2019-01-26T07:00:35.428Z,116.45
2019-01-26T07:03:04.287Z,132.73
2019-01-26T07:05:36.652Z,116.25
2019-01-26T07:08:05.210Z,114.87
2019-01-26T07:10:34.283Z,104.65
2019-01-26T07:13:04.000Z,97.43
2019-01-26T07:15:32.025Z,92.27
2019-01-26T07:18:00.298Z,89.07
2019-01-26T07:20:30.197Z,94.93
2019-01-26T07:22:58.682Z,81.80
2019-01-26T07:25:30.531Z,90.33
2019-01-26T07:28:00.770Z,79.70
2019-01-26T07:30:29.222Z,80.77
2019-01-26T07:32:57.904Z,71.47
2019-01-26T07:35:26.417Z,69.23
2019-01-26T07:37:55.277Z,71.67
2019-01-26T07:40:26.809Z,59.43
2019-01-26T07:42:55.155Z,57.97
2019-01-26T07:45:23.809Z,82.73
2019-01-26T07:47:53.699Z,79.53
2019-01-26T07:50:26.268Z,81.90
2019-01-26T07:52:54.620Z,71.50
2019-01-26T07:55:22.884Z,87.27
2019-01-26T07:57:51.153Z,86.20
2019-01-26T08:00:22.157Z,91.53
2019-01-26T08:02:53.549Z,88.00
2019-01-26T08:08:09.397Z,90.57
2019-01-26T08:10:37.719Z,87.78
2019-01-26T08:13:06.105Z,98.63
2019-01-26T08:15:40.471Z,103.67
2019-01-26T08:18:08.775Z,92.80
2019-01-26T08:20:37.065Z,98.40
2019-01-26T08:23:05.442Z,94.43
2019-01-26T08:25:33.757Z,90.87
2019-01-26T08:28:02.065Z,123.50
2019-01-26T08:30:30.492Z,105.77
2019-01-26T08:32:58.896Z,102.40
2019-01-26T08:35:27.448Z,114.93
2019-01-26T08:37:55.782Z,102.85
2019-01-26T08:40:24.369Z,95.73
2019-01-26T08:42:52.631Z,109.53
2019-01-26T08:45:20.984Z,120.62
2019-01-26T08:47:50.919Z,106.43
2019-01-26T08:50:21.588Z,115.37
2019-01-26T08:52:49.907Z,106.50
2019-01-26T08:55:18.754Z,123.55
2019-01-26T08:57:47.092Z,99.80
2019-01-26T09:00:21.480Z,127.53
2019-01-26T09:02:55.250Z,118.87
2019-01-26T09:05:34.255Z,121.07
2019-01-26T09:08:02.566Z,129.63
2019-01-26T09:10:31.498Z,106.63
2019-01-26T09:13:19.320Z,122.20
2019-01-26T09:15:49.503Z,136.80
2019-01-26T09:18:17.880Z,147.23
2019-01-26T09:20:46.153Z,153.20
2019-01-26T09:23:14.512Z,132.03
2019-01-26T09:25:42.632Z,112.30
2019-01-26T09:28:11.376Z,120.80
2019-01-26T09:30:39.673Z,110.93
2019-01-26T09:33:09.582Z,101.63
2019-01-26T09:35:42.494Z,112.93
2019-01-26T09:38:10.810Z,113.10
2019-01-26T09:40:41.852Z,108.53
2019-01-26T09:43:09.983Z,121.73
2019-01-26T09:45:38.091Z,102.13
2019-01-26T09:48:06.294Z,115.12
2019-01-26T09:50:34.391Z,95.87
2019-01-26T09:53:03.559Z,107.93
2019-01-26T09:55:31.644Z,98.37
2019-01-26T09:58:02.669Z,106.03
2019-01-26T10:00:30.978Z,98.53
2019-01-26T10:02:59.968Z,97.67
2019-01-26T10:05:28.027Z,100.60
2019-01-26T10:07:58.060Z,80.07
2019-01-26T10:10:26.053Z,79.67
2019-01-26T10:12:54.475Z,98.60
2019-01-26T10:15:25.473Z,97.40
2019-01-26T10:17:53.580Z,89.43
2019-01-26T10:20:25.997Z,94.37
2019-01-26T10:22:54.094Z,84.03
2019-01-26T10:25:22.130Z,93.40
2019-01-26T10:27:50.153Z,93.73
2019-01-26T10:30:24.285Z,80.53
2019-01-26T10:32:52.392Z,93.20
2019-01-26T10:35:21.271Z,81.17
2019-01-26T10:37:49.388Z,75.93
2019-01-26T10:40:19.074Z,70.10
2019-01-26T10:42:47.218Z,69.27
2019-01-26T10:45:15.308Z,62.57
2019-01-26T10:47:43.445Z,66.57
2019-01-26T10:50:11.496Z,70.70
2019-01-26T10:52:40.279Z,55.63
2019-01-26T10:55:09.840Z,63.73
2019-01-26T10:57:37.916Z,63.87
2019-01-26T11:00:07.959Z,56.10
2019-01-26T11:02:36.393Z,56.33
2019-01-26T11:05:05.732Z,59.77
2019-01-26T11:07:33.801Z,55.73
2019-01-26T11:10:02.830Z,57.33
2019-01-26T11:12:30.863Z,59.30
2019-01-26T11:15:02.661Z,52.80
2019-01-26T11:17:30.455Z,57.07
2019-01-26T11:19:58.499Z,53.63
2019-01-26T11:22:26.580Z,51.07
2019-01-26T11:24:54.601Z,50.83
2019-01-26T11:27:22.621Z,48.10
2019-01-26T11:29:50.751Z,51.63
2019-01-26T11:32:18.813Z,56.70
2019-01-26T11:34:46.898Z,54.90
2019-01-26T11:37:15.005Z,51.05
2019-01-26T11:39:44.961Z,52.43
2019-01-26T11:42:17.552Z,41.27
2019-01-26T11:44:47.603Z,47.17
2019-01-26T11:47:15.729Z,42.80
2019-01-26T11:49:47.683Z,49.13
2019-01-26T11:52:17.341Z,50.50
2019-01-26T11:54:47.220Z,42.43
2019-01-26T11:57:17.999Z,37.07
2019-01-26T11:59:47.687Z,34.87
2019-01-26T12:02:18.693Z,38.97
2019-01-26T12:04:49.116Z,34.37
2019-01-26T12:07:17.303Z,41.80
2019-01-26T12:09:48.593Z,41.37
2019-01-26T12:12:16.659Z,30.93
2019-01-26T12:14:44.901Z,35.53
2019-01-26T12:17:12.996Z,35.48
2019-01-26T12:19:41.111Z,39.87
2019-01-26T12:22:09.274Z,43.50
2019-01-26T12:24:37.291Z,27.10
2019-01-26T12:27:05.358Z,29.93
2019-01-26T12:29:33.485Z,26.87
2019-01-26T12:32:03.454Z,28.30
2019-01-26T12:34:31.293Z,29.87
2019-01-26T12:37:03.697Z,29.30
2019-01-26T12:39:31.783Z,23.67
2019-01-26T12:41:59.894Z,25.73
2019-01-26T12:44:27.942Z,25.13
2019-01-26T12:46:55.982Z,21.27
2019-01-26T12:49:29.490Z,23.37
2019-01-26T12:51:53.834Z,22.40
2019-01-26T12:54:21.982Z,19.20
2019-01-26T12:56:50.097Z,20.40
2019-01-26T12:59:24.001Z,19.57
2019-01-26T13:01:52.132Z,23.57
2019-01-26T13:04:20.264Z,20.27
2019-01-26T13:06:48.301Z,18.83
2019-01-26T13:09:16.566Z,20.70
2019-01-26T13:11:44.816Z,20.40
2019-01-26T13:14:13.228Z,17.97
2019-01-26T13:16:41.522Z,23.03
2019-01-26T13:19:09.907Z,21.27
2019-01-26T13:21:44.420Z,14.90
2019-01-26T13:24:08.256Z,17.77
2019-01-26T13:26:37.439Z,22.77
2019-01-26T13:29:08.634Z,19.57
2019-01-26T13:31:36.940Z,18.37
2019-01-26T13:34:05.208Z,15.40
2019-01-26T13:36:35.918Z,15.90
2019-01-26T13:39:07.200Z,14.50
2019-01-26T13:41:35.259Z,20.93
2019-01-26T13:44:03.855Z,17.07
2019-01-26T13:46:31.963Z,15.70
2019-01-26T13:49:00.144Z,17.27
2019-01-26T13:51:28.292Z,16.60
2019-01-26T13:53:56.550Z,14.37
2019-01-26T13:56:24.629Z,15.00
2019-01-26T13:58:52.706Z,16.50
2019-01-26T14:01:20.806Z,14.97
2019-01-26T14:03:50.478Z,17.63
2019-01-26T14:06:18.579Z,14.37
2019-01-26T14:08:46.620Z,14.40
2019-01-26T14:11:14.734Z,16.43
2019-01-26T14:13:42.801Z,18.03
2019-01-26T14:16:10.838Z,14.53
2019-01-26T14:18:39.158Z,12.17
2019-01-26T14:21:07.278Z,16.07
2019-01-26T14:23:37.030Z,16.50
2019-01-26T14:26:05.251Z,18.37
2019-01-26T14:28:33.311Z,17.53
2019-01-26T14:31:01.450Z,14.77
2019-01-26T14:33:30.340Z,18.37
2019-01-26T14:35:58.403Z,16.70
2019-01-26T14:38:26.644Z,22.10
2019-01-26T14:40:54.770Z,16.77
2019-01-26T14:43:22.787Z,73.10
2019-01-26T14:45:53.132Z,19.73
2019-01-26T14:48:21.259Z,17.20
2019-01-26T14:50:49.593Z,19.70
2019-01-26T14:53:18.540Z,16.90
2019-01-26T14:55:53.373Z,12.03
2019-01-26T14:58:21.426Z,17.50
2019-01-26T15:00:51.510Z,14.00
2019-01-26T15:03:19.564Z,16.13
2019-01-26T15:05:47.693Z,15.63
2019-01-26T15:08:15.842Z,17.87
2019-01-26T15:10:45.109Z,19.07
2019-01-26T15:13:13.289Z,18.40
2019-01-26T15:15:42.127Z,20.27
2019-01-26T15:18:10.241Z,14.83
2019-01-26T15:20:39.975Z,15.07
2019-01-26T15:23:08.672Z,18.00
2019-01-26T15:25:37.717Z,21.90
2019-01-26T15:28:09.926Z,21.10
2019-01-26T15:30:42.289Z,12.40
2019-01-26T15:33:13.500Z,15.33
2019-01-26T15:35:56.968Z,12.97
2019-01-26T15:38:25.079Z,15.27
2019-01-26T15:40:53.424Z,16.43
2019-01-26T15:43:22.195Z,18.20
2019-01-26T15:45:50.678Z,18.80
2019-01-26T15:48:24.872Z,15.37
2019-01-26T15:50:53.761Z,15.40
2019-01-26T15:53:22.052Z,17.00
2019-01-26T15:55:50.302Z,20.43
2019-01-26T15:58:18.443Z,15.00
2019-01-26T16:00:48.163Z,20.90
2019-01-26T16:03:16.342Z,24.23
2019-01-26T16:05:45.940Z,27.20
2019-01-26T16:08:20.064Z,26.70
2019-01-26T16:10:48.184Z,18.52
2019-01-26T16:13:16.364Z,19.43
2019-01-26T16:15:44.593Z,17.40
2019-01-26T16:18:12.651Z,23.00
2019-01-26T16:20:45.289Z,24.20
2019-01-26T16:23:13.623Z,17.40
2019-01-26T16:25:41.732Z,16.73
2019-01-26T16:28:15.884Z,17.65
2019-01-26T16:30:49.192Z,18.80
2019-01-26T16:33:18.882Z,16.57
2019-01-26T16:35:46.919Z,17.90
2019-01-26T16:38:15.026Z,17.17
2019-01-26T16:47:07.581Z,18.07
2019-01-26T16:53:06.841Z,25.93
2019-01-26T16:55:36.678Z,19.73
2019-01-26T16:58:04.756Z,15.98
2019-01-26T17:03:20.345Z,14.43
2019-01-26T17:05:48.403Z,16.48
2019-01-26T17:08:16.491Z,18.33
2019-01-26T17:10:46.362Z,14.50
2019-01-26T17:13:14.526Z,13.40
2019-01-26T17:15:45.209Z,11.53
2019-01-26T17:18:13.924Z,11.87
2019-01-26T17:20:43.496Z,11.37
2019-01-26T17:23:12.140Z,11.23
2019-01-26T17:25:40.210Z,11.70
2019-01-26T17:28:08.237Z,13.50
2019-01-26T17:30:40.188Z,11.80
2019-01-26T17:33:08.661Z,10.00
2019-01-26T17:35:36.876Z,15.63
2019-01-26T17:38:09.341Z,14.75
2019-01-26T17:40:37.942Z,10.17
2019-01-26T17:43:06.302Z,12.43
2019-01-26T17:45:34.420Z,12.60
2019-01-26T17:48:02.585Z,12.00
2019-01-26T17:50:32.171Z,11.17
2019-01-26T17:53:01.447Z,12.30
2019-01-26T17:55:30.522Z,14.58
2019-01-26T17:57:58.680Z,15.80
2019-01-26T18:00:32.382Z,10.17
2019-01-26T18:03:00.906Z,10.17
2019-01-26T18:05:30.023Z,10.40
2019-01-26T18:07:58.097Z,10.97
2019-01-26T18:10:26.467Z,9.57
2019-01-26T18:12:54.773Z,12.40
2019-01-26T18:15:22.935Z,9.23
2019-01-26T18:17:51.243Z,13.43
2019-01-26T18:20:48.925Z,10.30
2019-01-26T18:23:03.841Z,12.30
2019-01-26T18:25:33.567Z,17.13
2019-01-26T18:28:10.334Z,13.33
2019-01-26T18:30:59.150Z,13.17
2019-01-26T18:33:27.336Z,11.27
2019-01-26T18:35:55.373Z,13.33
2019-01-26T18:38:23.430Z,11.00
2019-01-26T18:40:52.253Z,12.80
2019-01-26T18:43:23.122Z,10.90
2019-01-26T18:45:51.244Z,10.83
2019-01-26T18:48:19.449Z,8.83
2019-01-26T18:50:48.355Z,9.57
2019-01-26T18:53:16.407Z,9.70
2019-01-26T18:55:44.447Z,11.47
2019-01-26T18:58:14.403Z,9.13
2019-01-26T19:00:44.864Z,10.23
2019-01-26T19:03:20.267Z,10.40
2019-01-26T19:05:48.327Z,12.30
2019-01-26T19:08:16.353Z,11.03
2019-01-26T19:10:44.505Z,10.97
2019-01-26T19:13:12.697Z,14.07
2019-01-26T19:15:40.790Z,9.87
2019-01-26T19:18:08.891Z,8.70
2019-01-26T19:20:36.936Z,9.90
2019-01-26T19:23:05.067Z,7.77
2019-01-26T19:25:33.083Z,10.70
2019-01-26T19:28:01.183Z,7.07
2019-01-26T19:30:29.279Z,9.67
2019-01-26T19:32:58.604Z,8.20
2019-01-26T19:35:26.768Z,9.10
2019-01-26T19:37:56.431Z,9.05
2019-01-26T19:40:26.242Z,9.43
2019-01-26T19:42:54.394Z,8.33
2019-01-26T19:45:23.364Z,8.10
2019-01-26T19:47:51.381Z,7.83
2019-01-26T19:50:20.667Z,8.27
2019-01-26T19:52:48.725Z,9.23
2019-01-26T19:55:17.615Z,8.10
2019-01-26T19:57:45.704Z,7.73
2019-01-26T20:00:15.369Z,8.43
2019-01-26T20:02:43.661Z,7.53
2019-01-26T20:05:13.623Z,8.63
2019-01-26T20:07:42.083Z,7.50
2019-01-26T20:10:10.508Z,7.27
2019-01-26T20:12:42.535Z,10.97
2019-01-26T20:15:12.948Z,7.67
2019-01-26T20:17:40.954Z,9.23
2019-01-26T20:20:10.982Z,8.30
2019-01-26T20:22:39.055Z,9.10
2019-01-26T20:25:07.200Z,8.83
2019-01-26T20:27:35.268Z,10.63
2019-01-26T20:30:04.748Z,9.07
2019-01-26T20:32:32.809Z,8.88
2019-01-26T20:35:01.927Z,6.80
2019-01-26T20:37:31.990Z,6.77
2019-01-26T20:40:00.087Z,7.35
2019-01-26T20:42:28.402Z,8.60
2019-01-26T20:44:56.468Z,7.13
2019-01-26T20:47:24.563Z,7.53
2019-01-26T20:49:52.629Z,9.43
2019-01-26T20:52:20.785Z,10.73
2019-01-26T20:54:48.953Z,8.00
2019-01-26T20:57:17.139Z,6.77
2019-01-26T20:59:45.148Z,7.13
2019-01-26T21:02:13.167Z,7.00
2019-01-26T21:04:44.347Z,6.53
2019-01-26T21:07:14.073Z,7.40
2019-01-26T21:09:42.163Z,6.60
2019-01-26T21:12:10.303Z,7.97
2019-01-26T21:14:38.444Z,6.17
2019-01-26T21:17:06.688Z,6.30
2019-01-26T21:19:40.225Z,6.27
2019-01-26T21:22:08.279Z,5.27
2019-01-26T21:24:36.372Z,5.90
2019-01-26T21:27:04.432Z,5.83
2019-01-26T21:29:32.460Z,5.90
2019-01-26T21:32:00.540Z,5.57
2019-01-26T21:34:30.173Z,6.30
2019-01-26T21:36:58.224Z,5.37
2019-01-26T21:39:26.309Z,5.40
2019-01-26T21:41:54.947Z,5.00
2019-01-26T21:44:23.455Z,5.03
2019-01-26T21:46:55.208Z,5.67
2019-01-26T21:49:23.487Z,4.47
2019-01-26T21:51:51.671Z,4.63
2019-01-26T21:54:21.363Z,5.03
2019-01-26T21:56:49.459Z,4.53
2019-01-26T21:59:17.586Z,3.77
2019-01-26T22:01:48.763Z,3.80
2019-01-26T22:04:16.848Z,3.60
2019-01-26T22:06:45.550Z,3.30
2019-01-26T22:09:13.773Z,3.80
2019-01-26T22:11:41.813Z,3.90
2019-01-26T22:14:11.520Z,3.57
2019-01-26T22:16:39.621Z,3.27
2019-01-26T22:19:08.603Z,3.45
2019-01-26T22:21:46.078Z,3.53
2019-01-26T22:24:16.971Z,2.83
2019-01-26T22:26:45.045Z,3.50
2019-01-26T22:29:13.096Z,3.45
2019-01-26T22:31:41.267Z,4.60
2019-01-26T22:34:09.354Z,3.70
2019-01-26T22:36:37.398Z,2.80
2019-01-26T22:39:08.239Z,4.20
2019-01-26T22:41:36.338Z,2.70
2019-01-26T22:44:04.350Z,3.03
2019-01-26T22:46:32.406Z,3.45
2019-01-26T22:49:02.102Z,3.30
2019-01-26T22:51:34.665Z,2.93
2019-01-26T22:54:04.356Z,4.27
2019-01-26T22:56:33.140Z,3.37
2019-01-26T22:59:02.326Z,5.80
2019-01-26T23:01:30.503Z,4.43
2019-01-26T23:04:03.144Z,3.37
2019-01-26T23:06:32.884Z,4.57
2019-01-26T23:09:02.627Z,3.97
2019-01-26T23:11:37.249Z,3.37
2019-01-26T23:14:06.911Z,4.97
2019-01-26T23:16:47.082Z,3.43
2019-01-26T23:19:27.957Z,3.23
2019-01-26T23:22:03.283Z,3.47
2019-01-26T23:24:47.767Z,2.80
2019-01-26T23:27:32.172Z,3.37
2019-01-26T23:30:10.512Z,3.67
2019-01-26T23:32:38.603Z,3.17
2019-01-26T23:35:09.433Z,2.97
2019-01-26T23:37:41.282Z,3.20
2019-01-26T23:40:17.949Z,2.40
2019-01-26T23:42:43.411Z,3.50
2019-01-26T23:45:13.153Z,3.00
2019-01-26T23:47:43.953Z,2.50
2019-01-26T23:50:14.625Z,3.97
2019-01-26T23:52:43.437Z,4.40
2019-01-26T23:55:11.439Z,2.13
2019-01-26T23:57:39.460Z,2.40
